Time;durP1;ratioP1;P1;durP2;ratioP2;P2;SDS_P1;SDS_P2;PMS_P1;PMS_P2;Temp;Humidity;BMP_temperature;BMP_pressure;BME280_temperature;BME280_humidity;BME280_pressure;Samples;Min_cycle;Max_cycle;Signal;HPM_P1;HPM_P2
2022/08/13 00:00:38;;;;;;;4.05;2.78;;;;;;;13.97;57.80;93878.03;5028439;28;20471;-68
2022/08/13 00:03:18;;;;;;;8.10;3.20;;;;;;;13.90;58.03;93878.25;5028553;28;20048;-67
2022/08/13 00:06:08;;;;;;;4.38;2.85;;;;;;;13.84;58.33;93877.22;5028532;28;20049;-68
2022/08/13 00:08:48;;;;;;;4.90;3.10;;;;;;;13.88;58.53;93877.13;5016917;28;20402;-67
2022/08/13 00:12:56;;;;;;;5.03;3.10;;;;;;;13.83;58.33;93877.69;5028718;28;20045;-70
2022/08/13 00:14:31;;;;;;;7.50;4.72;;;;;;;13.70;58.98;93872.13;5028229;28;20056;-69
2022/08/13 00:17:04;;;;;;;5.28;3.03;;;;;;;13.73;59.25;93871.25;5016370;28;20383;-69
2022/08/13 00:19:35;;;;;;;4.45;2.80;;;;;;;13.62;59.19;93868.78;5028906;28;20064;-67
2022/08/13 00:22:02;;;;;;;7.07;2.80;;;;;;;13.69;58.94;93868.59;5028078;28;20395;-68
2022/08/13 00:24:49;;;;;;;4.20;2.70;;;;;;;13.53;59.54;93874.19;5028768;28;20072;-68
2022/08/13 00:27:22;;;;;;;4.32;2.88;;;;;;;13.53;59.77;93868.66;5027835;28;20488;-67
2022/08/13 00:29:54;;;;;;;6.07;2.90;;;;;;;13.41;60.60;93870.16;5028423;28;20544;-67
2022/08/13 00:32:29;;;;;;;4.78;2.88;;;;;;;13.35;60.35;93863.63;5027621;28;20442;-67
2022/08/13 00:34:59;;;;;;;4.80;3.00;;;;;;;13.61;59.64;93874.75;5028046;28;20453;-67
2022/08/13 00:37:27;;;;;;;4.73;2.90;;;;;;;13.53;60.18;93868.66;5027361;28;20091;-68
2022/08/13 00:40:00;;;;;;;4.82;2.70;;;;;;;13.42;60.69;93865.41;5028729;28;20044;-67
2022/08/13 00:42:45;;;;;;;4.53;2.63;;;;;;;13.40;60.52;93863.09;5028397;28;20041;-69
2022/08/13 00:45:17;;;;;;;3.92;2.83;;;;;;;13.46;60.75;93872.41;5006998;28;20106;-67
2022/08/13 00:50:35;;;;;;;4.60;2.97;;;;;;;13.27;60.85;93863.00;5031738;28;20647;-66
2022/08/13 00:53:04;;;;;;;4.90;2.90;;;;;;;13.39;60.95;93859.56;5031753;28;20079;-67
2022/08/13 00:55:31;;;;;;;4.45;2.92;;;;;;;13.37;61.00;93866.72;5032701;28;20060;-67
2022/08/13 00:57:58;;;;;;;4.32;2.75;;;;;;;13.27;61.39;93860.25;5031448;28;20498;-69
2022/08/13 01:00:28;;;;;;;4.95;2.80;;;;;;;13.22;61.62;93862.75;5032643;28;20064;-69
2022/08/13 01:02:56;;;;;;;3.93;2.50;;;;;;;13.19;61.79;93856.13;5031632;28;20029;-65
2022/08/13 01:05:43;;;;;;;4.53;3.00;;;;;;;13.26;61.46;93863.44;5032543;28;20052;-67
2022/08/13 01:08:16;;;;;;;8.23;3.42;;;;;;;13.12;61.95;93865.38;5030681;28;20041;-69
2022/08/13 01:10:49;;;;;;;4.85;2.97;;;;;;;12.90;62.87;93861.63;5032164;28;20037;-69
2022/08/13 01:13:25;;;;;;;5.97;2.97;;;;;;;13.05;62.42;93856.50;5031468;28;20796;-67
2022/08/13 01:15:56;;;;;;;4.33;2.90;;;;;;;13.00;62.36;93849.56;5032003;28;20394;-67
2022/08/13 01:18:27;;;;;;;4.90;3.00;;;;;;;13.16;62.14;93844.00;5031413;28;20472;-68
2022/08/13 01:21:08;;;;;;;4.85;2.80;;;;;;;12.99;62.39;93859.78;5031610;28;20051;-68
2022/08/13 01:23:36;;;;;;;5.13;2.97;;;;;;;13.40;61.94;93846.56;5031948;28;20552;-68
2022/08/13 01:26:10;;;;;;;4.63;3.00;;;;;;;13.33;61.50;93844.00;5031528;28;20056;-69
2022/08/13 01:28:38;;;;;;;5.50;3.10;;;;;;;13.37;62.16;93850.19;5031702;28;20042;-69
2022/08/13 01:31:10;;;;;;;4.70;3.03;;;;;;;13.09;62.35;93855.22;5031219;28;20041;-71
2022/08/13 01:33:47;;;;;;;5.50;3.28;;;;;;;12.75;63.75;93850.16;5031698;28;20042;-72
2022/08/13 01:36:20;;;;;;;5.47;3.10;;;;;;;12.93;63.16;93850.50;5016734;28;20487;-68
2022/08/13 01:39:07;;;;;;;4.30;3.00;;;;;;;12.98;63.13;93863.00;5031004;28;20052;-72
2022/08/13 01:41:46;;;;;;;3.73;2.57;;;;;;;12.79;63.58;93857.13;5031427;28;20049;-68
2022/08/13 01:44:23;;;;;;;4.47;2.83;;;;;;;12.60;64.25;93863.53;5030634;28;20059;-67
2022/08/13 01:53:08;;;;;;;4.05;2.80;;;;;;;12.77;63.50;93859.53;5030665;28;20108;-68
2022/08/13 01:55:42;;;;;;;4.83;3.30;;;;;;;12.53;64.75;93858.16;5030871;28;20071;-73
2022/08/13 01:58:29;;;;;;;4.43;3.10;;;;;;;12.69;64.39;93851.91;5024499;28;20595;-70
2022/08/13 02:01:03;;;;;;;5.38;3.30;;;;;;;12.70;63.97;93845.97;5026034;28;20046;-70
2022/08/13 02:03:36;;;;;;;4.72;3.08;;;;;;;12.73;64.37;93856.09;5031275;28;20041;-69
2022/08/13 02:06:03;;;;;;;5.82;3.40;;;;;;;12.68;64.04;93851.13;5030434;28;20056;-69
2022/08/13 02:08:52;;;;;;;5.20;2.97;;;;;;;12.66;64.36;93844.50;5030896;28;20413;-69
2022/08/13 02:11:19;;;;;;;7.80;4.95;;;;;;;12.58;64.96;93849.41;5029309;28;20052;-69
2022/08/13 02:13:55;;;;;;;7.03;3.50;;;;;;;12.51;64.89;93844.06;5031068;28;20041;-68
2022/08/13 02:16:28;;;;;;;5.68;3.60;;;;;;;12.18;66.31;93835.78;5030167;28;20612;-68
2022/08/13 02:19:00;;;;;;;5.22;3.20;;;;;;;12.34;65.49;93830.28;5030482;28;20413;-68
2022/08/13 02:21:32;;;;;;;5.30;3.20;;;;;;;12.33;66.03;93828.72;5030884;28;20038;-68
2022/08/13 02:24:13;;;;;;;5.30;3.05;;;;;;;12.26;65.93;93828.16;5030260;28;20049;-68
2022/08/13 02:26:47;;;;;;;5.35;3.50;;;;;;;12.20;67.18;93825.13;5030761;28;20041;-67
2022/08/13 02:29:22;;;;;;;4.93;3.35;;;;;;;12.02;66.90;93825.53;5029814;28;21318;-67
2022/08/13 02:31:50;;;;;;;6.60;3.50;;;;;;;12.08;66.64;93825.81;5030675;28;20429;-68
2022/08/13 02:34:39;;;;;;;4.97;3.10;;;;;;;11.90;67.42;93837.19;5029947;28;20350;-67
2022/08/13 02:37:10;;;;;;;4.78;3.05;;;;;;;11.99;67.47;93824.41;5029918;28;20430;-67
2022/08/13 02:39:56;;;;;;;5.78;3.42;;;;;;;12.07;67.39;93818.75;5030232;28;20052;-67
2022/08/13 02:42:23;;;;;;;6.32;3.35;;;;;;;12.19;67.17;93824.38;5030728;28;20053;-67
2022/08/13 02:44:50;;;;;;;5.22;3.30;;;;;;;12.28;67.15;93817.50;5030417;28;20059;-67
2022/08/13 02:47:21;;;;;;;4.80;3.40;;;;;;;12.64;66.07;93828.41;5030102;28;20044;-66
2022/08/13 02:50:08;;;;;;;5.53;3.20;;;;;;;12.57;66.41;93825.81;5016987;28;20519;-67
2022/08/13 02:52:40;;;;;;;4.80;3.17;;;;;;;12.86;64.78;93825.91;5030629;28;20055;-67
2022/08/13 02:55:29;;;;;;;7.88;3.30;;;;;;;12.68;65.49;93823.59;5016203;28;20836;-67
2022/08/13 02:58:02;;;;;;;4.53;3.40;;;;;;;13.03;65.12;93814.84;5029450;28;20045;-67
2022/08/13 03:00:30;;;;;;;4.67;3.10;;;;;;;13.36;64.73;93821.84;5016190;28;20045;-70
2022/08/13 03:02:57;;;;;;;5.10;3.30;;;;;;;12.97;64.49;93828.38;5029492;28;20050;-68
2022/08/13 03:05:30;;;;;;;5.03;3.50;;;;;;;12.55;65.57;93819.97;5030260;28;20054;-68
2022/08/13 03:08:17;;;;;;;4.68;3.17;;;;;;;12.92;65.57;93826.16;5017864;28;20049;-67
2022/08/13 03:11:04;;;;;;;6.70;3.50;;;;;;;12.91;64.63;93830.09;5029394;28;20041;-67
2022/08/13 03:13:36;;;;;;;5.90;3.40;;;;;;;12.80;64.65;93830.38;5030024;28;20058;-67
2022/08/13 03:16:17;;;;;;;6.93;3.30;;;;;;;12.84;65.88;93824.75;5029185;28;20494;-68
2022/08/13 03:18:47;;;;;;;7.15;3.50;;;;;;;13.08;65.71;93819.81;5030023;28;20053;-67
2022/08/13 03:21:39;;;;;;;6.30;3.50;;;;;;;13.26;65.20;93830.38;5029167;28;20645;-67
2022/08/13 03:24:17;;;;;;;4.80;3.30;;;;;;;13.41;64.75;93826.06;5026552;28;20071;-67
2022/08/13 03:27:00;;;;;;;4.60;3.20;;;;;;;13.20;64.78;93827.38;5029085;28;20409;-68
2022/08/13 03:29:28;;;;;;;5.45;3.50;;;;;;;13.36;64.43;93821.06;5029763;28;20037;-69
2022/08/13 03:32:17;;;;;;;5.25;3.40;;;;;;;13.52;64.33;93820.22;5028912;28;20124;-69
2022/08/13 03:34:59;;;;;;;5.05;3.20;;;;;;;13.60;64.40;93813.31;5028994;28;20433;-65
2022/08/13 03:37:40;;;;;;;5.93;3.00;;;;;;;13.71;64.24;93810.25;5029447;28;20045;-70
2022/08/13 03:40:10;;;;;;;6.23;3.23;;;;;;;13.85;64.26;93811.81;5028673;28;20420;-69
2022/08/13 03:42:48;;;;;;;6.95;3.40;;;;;;;13.67;63.80;93809.59;5029601;28;20098;-68
2022/08/13 03:45:24;;;;;;;5.03;3.67;;;;;;;13.88;63.91;93810.94;5028989;28;20045;-69
2022/08/13 03:47:52;;;;;;;5.75;3.58;;;;;;;13.93;63.68;93811.16;5029403;28;20386;-72
2022/08/13 03:50:20;;;;;;;5.05;3.60;;;;;;;13.84;63.62;93816.56;5028882;28;20041;-68
2022/08/13 03:52:51;;;;;;;5.53;3.33;;;;;;;13.74;64.25;93818.44;5029170;28;20106;-69
2022/08/13 03:55:18;;;;;;;6.45;3.65;;;;;;;13.71;64.21;93819.28;5028718;28;20115;-67
2022/08/13 03:57:45;;;;;;;4.70;3.22;;;;;;;13.79;64.42;93817.09;5029165;28;20487;-67
2022/08/13 04:00:37;;;;;;;6.43;3.42;;;;;;;13.81;64.05;93809.16;5028508;28;20517;-69
2022/08/13 04:03:36;;;;;;;5.68;3.58;;;;;;;13.58;64.79;93804.69;5028508;28;20047;-67
2022/08/13 04:06:06;;;;;;;6.87;3.50;;;;;;;13.90;64.60;93805.75;5016179;28;20052;-67
2022/08/13 04:08:35;;;;;;;4.97;3.40;;;;;;;13.83;64.24;93805.97;5029236;28;20128;-67
2022/08/13 04:11:05;;;;;;;5.38;3.65;;;;;;;13.67;63.96;93804.84;5014474;28;20421;-67
2022/08/13 04:13:36;;;;;;;6.85;3.70;;;;;;;13.60;64.68;93805.03;5029049;28;20766;-68
2022/08/13 04:16:25;;;;;;;5.50;3.85;;;;;;;13.66;65.35;93808.03;5014545;28;20611;-68
2022/08/13 04:18:58;;;;;;;6.83;3.70;;;;;;;13.82;64.96;93804.41;5027131;28;20053;-68
2022/08/13 04:21:28;;;;;;;7.13;3.63;;;;;;;13.94;64.66;93806.41;5028540;28;20102;-67
2022/08/13 04:23:57;;;;;;;5.20;3.70;;;;;;;13.98;64.49;93804.31;5026551;28;20045;-67
2022/08/13 04:26:26;;;;;;;6.97;3.42;;;;;;;14.07;64.43;93804.44;5029159;28;20043;-67
2022/08/13 04:28:59;;;;;;;6.13;4.00;;;;;;;13.48;64.31;93798.28;5027869;28;20043;-68
2022/08/13 04:31:28;;;;;;;5.03;3.43;;;;;;;13.43;65.08;93806.31;5028378;28;20067;-67
2022/08/13 04:34:16;;;;;;;5.45;3.78;;;;;;;13.12;66.29;93813.03;5028070;28;20045;-68
2022/08/13 04:37:04;;;;;;;7.20;4.03;;;;;;;13.21;65.94;93808.88;5013107;28;20072;-67
2022/08/13 04:39:31;;;;;;;5.30;3.78;;;;;;;13.30;65.94;93818.09;5028624;28;20063;-67
2022/08/13 04:42:18;;;;;;;5.20;3.80;;;;;;;13.26;66.21;93814.63;5016071;28;20045;-67
2022/08/13 04:44:58;;;;;;;6.80;3.83;;;;;;;13.23;66.44;93809.97;5027956;28;20045;-67
2022/08/13 04:47:30;;;;;;;6.30;3.80;;;;;;;13.21;66.31;93814.38;5028732;28;20391;-68
2022/08/13 04:49:57;;;;;;;5.75;4.05;;;;;;;13.24;66.69;93817.03;5026699;28;20048;-67
2022/08/13 04:52:24;;;;;;;6.32;3.80;;;;;;;13.36;66.11;93813.59;5028549;28;20041;-67
2022/08/13 04:54:56;;;;;;;5.97;3.83;;;;;;;13.30;66.18;93823.59;5028160;28;20049;-73
2022/08/13 04:57:23;;;;;;;5.63;3.90;;;;;;;13.10;66.24;93818.19;5028351;28;20042;-67
2022/08/13 05:00:11;;;;;;;5.70;3.80;;;;;;;13.14;66.77;93818.09;5027766;28;20049;-69
2022/08/13 05:02:40;;;;;;;5.30;3.83;;;;;;;12.94;67.31;93818.22;5028555;28;20041;-67
2022/08/13 05:05:11;;;;;;;5.57;4.10;;;;;;;13.13;67.19;93817.31;5027796;28;20054;-70
2022/08/13 05:07:49;;;;;;;5.70;4.20;;;;;;;12.90;67.91;93823.06;5028593;28;20041;-67
2022/08/13 05:10:20;;;;;;;5.70;3.70;;;;;;;13.06;67.35;93827.75;5027943;28;20444;-67
2022/08/13 05:12:58;;;;;;;5.03;4.00;;;;;;;13.18;66.56;93827.81;5027994;28;20465;-69
2022/08/13 05:15:28;;;;;;;5.70;4.18;;;;;;;12.95;67.22;93828.78;5028425;28;20049;-67
2022/08/13 05:18:18;;;;;;;6.40;3.88;;;;;;;13.08;67.28;93833.59;5014701;28;20045;-67
2022/08/13 05:21:03;;;;;;;7.88;5.57;;;;;;;13.10;67.29;93826.47;5027741;28;20410;-72
2022/08/13 05:23:34;;;;;;;7.40;4.50;;;;;;;13.21;66.37;93830.91;5028401;28;20049;-66
2022/08/13 05:26:23;;;;;;;6.53;4.18;;;;;;;13.20;66.60;93824.63;5026919;28;20509;-67
2022/08/13 05:29:10;;;;;;;6.63;4.35;;;;;;;12.82;67.86;93838.19;5027156;28;20057;-68
2022/08/13 05:31:35;;;;;;;8.00;5.07;;;;;;;12.79;68.69;93823.31;5028755;28;20044;-67
2022/08/13 05:34:27;;;;;;;7.05;4.43;;;;;;;13.03;67.62;93834.91;5029344;28;20520;-68
2022/08/13 05:36:57;;;;;;;5.72;4.35;;;;;;;13.04;67.58;93824.66;5031350;28;20045;-67
2022/08/13 05:39:45;;;;;;;7.75;4.47;;;;;;;13.15;67.69;93833.41;5031474;28;20069;-67
2022/08/13 05:42:21;;;;;;;6.20;4.18;;;;;;;13.36;66.66;93819.09;5030747;28;21643;-66
2022/08/13 05:44:55;;;;;;;6.53;4.00;;;;;;;13.41;67.02;93822.53;5031680;28;20052;-66
2022/08/13 05:47:23;;;;;;;6.38;4.43;;;;;;;13.53;67.21;93819.81;5030528;28;21719;-70
2022/08/13 05:49:52;;;;;;;6.80;4.45;;;;;;;13.69;66.92;93818.97;5031683;28;20056;-68
2022/08/13 05:52:32;;;;;;;6.80;4.13;;;;;;;13.82;66.61;93815.44;5014579;28;20592;-66
2022/08/13 05:55:13;;;;;;;9.02;4.30;;;;;;;14.02;65.55;93812.50;5030961;28;20076;-66
2022/08/13 05:58:00;;;;;;;5.77;3.97;;;;;;;13.79;66.46;93817.88;5016956;28;20041;-72
2022/08/13 06:03:35;;;;;;;5.68;4.40;;;;;;;14.21;65.94;93830.06;5027373;28;20045;-65
2022/08/13 06:06:22;;;;;;;5.72;4.07;;;;;;;14.39;65.22;93824.78;5030090;28;20053;-65
2022/08/13 06:09:00;;;;;;;7.25;4.00;;;;;;;14.62;64.88;93823.66;5031119;28;20075;-65
2022/08/13 06:11:30;;;;;;;5.40;3.70;;;;;;;14.91;63.46;93817.97;5031199;28;20053;-66
2022/08/13 06:14:20;;;;;;;6.15;4.07;;;;;;;17.98;54.97;93827.84;5030661;28;20470;-69
2022/08/13 06:16:51;;;;;;;6.15;3.80;;;;;;;21.64;44.89;93817.19;5031120;28;20049;-69
2022/08/13 06:19:26;;;;;;;5.10;3.60;;;;;;;23.99;39.50;93801.84;5029940;28;21769;-67
2022/08/13 06:22:01;;;;;;;4.32;3.63;;;;;;;23.69;40.82;93805.03;5030927;28;20049;-68
2022/08/13 06:24:32;;;;;;;5.30;3.33;;;;;;;25.91;36.17;93804.41;5029830;28;21490;-69
2022/08/13 06:27:01;;;;;;;4.90;3.30;;;;;;;26.76;34.47;93796.16;5030534;28;20079;-70
2022/08/13 06:29:29;;;;;;;4.43;3.15;;;;;;;28.15;32.70;93787.97;5014921;28;20042;-68
2022/08/13 06:32:03;;;;;;;4.55;3.10;;;;;;;27.18;32.31;93793.97;5029984;28;20045;-76
2022/08/13 06:34:51;;;;;;;3.78;3.20;;;;;;;28.41;31.66;93788.13;5030563;28;20049;-71
2022/08/13 06:37:18;;;;;;;4.90;2.93;;;;;;;29.34;29.74;93792.50;5030189;28;20037;-67
2022/08/13 06:39:45;;;;;;;4.18;2.92;;;;;;;29.07;30.70;93793.19;5030601;28;20037;-68
2022/08/13 06:42:29;;;;;;;3.78;2.30;;;;;;;30.67;25.74;93786.63;5020368;28;20743;-70
2022/08/13 06:44:58;;;;;;;4.57;2.60;;;;;;;30.53;27.53;93793.69;5027578;28;20038;-68
2022/08/13 06:47:29;;;;;;;2.97;2.30;;;;;;;31.03;25.75;93797.38;5030424;28;20486;-68
2022/08/13 06:50:10;;;;;;;4.17;2.40;;;;;;;30.19;26.05;93798.00;5029562;28;20107;-68
2022/08/13 06:52:38;;;;;;;4.00;2.25;;;;;;;28.67;28.53;93807.25;5030460;28;20406;-67
2022/08/13 06:55:07;;;;;;;4.20;2.35;;;;;;;29.53;27.41;93798.81;5029763;28;20053;-70
2022/08/13 06:57:56;;;;;;;4.22;2.35;;;;;;;32.57;23.18;93810.38;5030182;28;20058;-68
2022/08/13 07:00:38;;;;;;;4.75;2.70;;;;;;;29.24;26.14;93801.41;5029325;28;20049;-71
2022/08/13 07:03:06;;;;;;;3.47;2.30;;;;;;;29.36;27.30;93809.69;5029127;28;20037;-68
2022/08/13 07:05:38;;;;;;;4.57;2.42;;;;;;;28.49;28.94;93810.81;5029686;28;20052;-68
2022/08/13 07:08:07;;;;;;;2.83;2.10;;;;;;;27.98;27.59;93799.50;5029355;28;20486;-68
2022/08/13 07:10:51;;;;;;;4.15;2.30;;;;;;;30.34;25.41;93797.41;5030164;28;20049;-70
2022/08/13 07:13:18;;;;;;;3.08;2.30;;;;;;;27.37;28.41;93807.41;5029402;28;20041;-68
2022/08/13 07:16:07;;;;;;;3.73;2.13;;;;;;;31.93;22.87;93803.44;5029120;28;20049;-74
2022/08/13 07:18:35;;;;;;;3.17;2.13;;;;;;;32.92;21.20;93799.44;5029517;28;20045;-68
2022/08/13 07:21:11;;;;;;;3.20;2.13;;;;;;;32.00;22.24;93804.84;5029477;28;20045;-67
2022/08/13 07:23:40;;;;;;;3.10;1.95;;;;;;;33.22;20.74;93806.47;5029667;28;20168;-70
2022/08/13 07:26:31;;;;;;;2.70;2.00;;;;;;;30.24;23.69;93807.66;5028731;28;21051;-68
2022/08/13 07:29:09;;;;;;;3.90;2.17;;;;;;;28.00;26.08;93806.13;5028756;28;20051;-69
2022/08/13 07:31:41;;;;;;;3.15;1.90;;;;;;;32.48;21.65;93808.06;5030020;28;20042;-68
2022/08/13 07:34:32;;;;;;;3.03;2.25;;;;;;;31.78;22.05;93814.72;5028499;28;20103;-70
2022/08/13 07:37:03;;;;;;;2.80;2.03;;;;;;;32.33;21.58;93810.84;5029176;28;20079;-68
2022/08/13 07:39:30;;;;;;;3.80;2.00;;;;;;;30.53;22.61;93808.59;5029254;28;20092;-69
2022/08/13 07:42:16;;;;;;;2.40;1.70;;;;;;;32.23;21.03;93816.28;5028904;28;20047;-68
2022/08/13 07:44:58;;;;;;;2.95;2.00;;;;;;;30.60;22.72;93809.97;5028519;28;20049;-69
2022/08/13 07:47:52;;;;;;;2.60;2.03;;;;;;;28.62;24.71;93815.81;5029314;28;20050;-69
2022/08/13 07:50:40;;;;;;;3.58;2.10;;;;;;;29.67;24.26;93813.72;5028448;28;21579;-68
2022/08/13 07:53:10;;;;;;;3.13;1.88;;;;;;;30.04;23.27;93815.56;5028625;28;20055;-74
2022/08/13 07:55:44;;;;;;;3.00;1.80;;;;;;;33.74;19.41;93800.56;5028883;28;20055;-68
2022/08/13 07:58:35;;;;;;;2.50;1.80;;;;;;;30.74;22.06;93810.66;5028071;28;20245;-68
2022/08/13 08:01:04;;;;;;;2.72;1.90;;;;;;;31.98;21.04;93813.13;5028569;28;20045;-69
2022/08/13 08:03:40;;;;;;;4.65;1.90;;;;;;;27.33;26.54;93826.66;5028869;28;20418;-69
2022/08/13 08:06:18;;;;;;;2.80;1.88;;;;;;;30.06;23.20;93807.28;5028538;28;20044;-69
2022/08/13 08:08:55;;;;;;;2.93;1.90;;;;;;;26.87;26.85;93824.22;5013311;28;20491;-67
2022/08/13 08:14:18;;;;;;;2.95;1.98;;;;;;;28.16;25.44;93823.38;5026991;28;20045;-67
2022/08/13 08:16:59;;;;;;;2.78;1.90;;;;;;;26.19;27.01;93840.06;5028896;28;20056;-69
2022/08/13 08:19:50;;;;;;;3.78;2.00;;;;;;;26.51;27.42;93838.31;5015022;28;20050;-68
2022/08/13 08:22:45;;;;;;;2.93;2.10;;;;;;;26.33;28.12;93838.94;5027833;28;21462;-69
2022/08/13 08:25:17;;;;;;;2.97;2.03;;;;;;;26.05;28.20;93841.91;5027975;28;20053;-69
2022/08/13 08:27:50;;;;;;;2.88;2.00;;;;;;;28.21;25.42;93840.25;5028421;28;20056;-71
2022/08/13 08:30:38;;;;;;;3.08;1.80;;;;;;;31.55;20.98;93842.94;5027416;28;20144;-70
2022/08/13 08:33:26;;;;;;;4.03;1.58;;;;;;;30.55;21.85;93842.78;5028023;28;20045;-69
2022/08/13 08:36:13;;;;;;;3.50;1.90;;;;;;;29.46;23.30;93842.66;5027509;28;20359;-68
2022/08/13 08:44:32;;;;;;;2.97;1.80;;;;;;;30.45;22.49;93836.06;5027479;28;20037;-71
2022/08/13 08:47:02;;;;;;;3.20;1.80;;;;;;;30.37;21.81;93829.56;5028071;28;20053;-71
2022/08/13 08:49:35;;;;;;;3.50;1.80;;;;;;;24.27;29.60;93843.94;5028392;28;20052;-71
2022/08/13 08:52:12;;;;;;;2.92;1.45;;;;;;;26.97;25.47;93841.56;5027961;28;20079;-73
2022/08/13 08:54:45;;;;;;;2.60;1.80;;;;;;;25.63;27.60;93838.25;5028531;28;20084;-70
2022/08/13 08:57:18;;;;;;;2.65;1.50;;;;;;;27.94;23.86;93841.38;5027721;28;20110;-70
2022/08/13 08:59:48;;;;;;;4.60;1.90;;;;;;;26.04;26.81;93843.22;5028499;28;20434;-70
2022/08/13 09:02:23;;;;;;;3.07;1.97;;;;;;;26.03;26.67;93839.63;5027924;28;20333;-69
2022/08/13 09:05:00;;;;;;;2.53;1.70;;;;;;;28.84;22.43;93840.88;5028387;28;20065;-68
2022/08/13 09:07:47;;;;;;;2.80;1.80;;;;;;;28.38;23.64;93851.28;5019392;28;20114;-69
2022/08/13 09:10:17;;;;;;;2.80;1.85;;;;;;;28.71;23.72;93837.22;5031893;28;20049;-68
2022/08/13 09:12:56;;;;;;;3.33;1.70;;;;;;;27.82;24.80;93847.09;5019007;28;20041;-71
2022/08/13 09:15:23;;;;;;;3.93;1.80;;;;;;;26.02;26.99;93837.34;5032012;28;20041;-69
2022/08/13 09:17:51;;;;;;;3.13;2.03;;;;;;;25.16;28.69;93835.28;5032996;28;20045;-68
2022/08/13 09:20:21;;;;;;;2.50;1.70;;;;;;;29.31;22.55;93836.00;5031795;28;20063;-69
2022/08/13 09:23:04;;;;;;;2.80;1.80;;;;;;;27.29;24.92;93832.59;5032218;28;20054;-70
2022/08/13 09:25:51;;;;;;;2.85;1.63;;;;;;;28.85;23.35;93824.66;5016959;28;20793;-69
2022/08/13 09:28:23;;;;;;;2.90;1.67;;;;;;;28.00;24.46;93827.94;5031125;28;20030;-69
2022/08/13 09:31:03;;;;;;;3.00;1.95;;;;;;;26.07;27.12;93826.03;5031661;28;20038;-71
2022/08/13 09:33:39;;;;;;;5.38;1.77;;;;;;;30.29;21.96;93823.03;5031672;28;20048;-69
2022/08/13 09:36:28;;;;;;;3.85;2.00;;;;;;;26.53;26.90;93826.53;5030880;28;20134;-69
2022/08/13 09:38:56;;;;;;;2.65;1.70;;;;;;;29.70;22.26;93829.59;5031322;28;20041;-66
2022/08/13 09:41:32;;;;;;;2.70;1.80;;;;;;;28.99;22.82;93825.47;5031339;28;20050;-70
2022/08/13 09:44:04;;;;;;;2.80;1.80;;;;;;;26.20;26.66;93842.34;5031149;28;20042;-68
2022/08/13 09:46:45;;;;;;;3.90;2.00;;;;;;;26.96;25.93;93830.81;5031604;28;20045;-68
2022/08/13 09:49:20;;;;;;;2.72;1.80;;;;;;;27.94;24.37;93830.09;5030794;28;20041;-70
2022/08/13 09:52:04;;;;;;;3.90;2.30;;;;;;;27.79;24.68;93822.00;5031117;28;20071;-68
2022/08/13 09:54:47;;;;;;;2.60;1.70;;;;;;;28.92;23.03;93814.81;5016310;28;20049;-69
2022/08/13 09:57:20;;;;;;;3.20;1.90;;;;;;;28.43;24.07;93815.78;5030138;28;20051;-68
2022/08/13 09:59:49;;;;;;;3.55;1.70;;;;;;;28.15;24.93;93813.38;5031310;28;20045;-68
2022/08/13 10:02:24;;;;;;;3.40;1.85;;;;;;;26.74;26.06;93809.25;5030129;28;20930;-70
2022/08/13 10:04:52;;;;;;;4.35;2.00;;;;;;;25.39;27.70;93819.91;5031163;28;20045;-67
2022/08/13 10:07:19;;;;;;;4.27;2.10;;;;;;;26.40;26.65;93809.47;5016844;28;20063;-68
2022/08/13 10:09:48;;;;;;;3.35;2.00;;;;;;;28.47;24.08;93811.38;5031317;28;20050;-68
2022/08/13 10:12:35;;;;;;;5.97;1.83;;;;;;;29.16;23.24;93800.53;5017804;28;20057;-68
2022/08/13 10:15:04;;;;;;;3.58;1.80;;;;;;;29.46;22.52;93803.06;5029430;28;20045;-68
2022/08/13 10:17:49;;;;;;;3.45;1.58;;;;;;;31.46;19.90;93793.16;5030769;28;20052;-69
2022/08/13 10:20:25;;;;;;;3.57;1.60;;;;;;;32.34;19.48;93810.28;5030179;28;20111;-69
2022/08/13 10:22:53;;;;;;;2.63;1.50;;;;;;;32.56;19.58;93797.50;5031218;28;20525;-69
2022/08/13 10:25:25;;;;;;;2.80;1.80;;;;;;;27.62;24.78;93796.84;5029382;28;20481;-69
2022/08/13 10:28:26;;;;;;;3.60;1.65;;;;;;;32.34;19.80;93789.66;5030349;28;20495;-69
2022/08/13 10:31:08;;;;;;;2.70;1.70;;;;;;;30.95;20.96;93800.13;5021192;28;20055;-69
2022/08/13 10:33:55;;;;;;;3.50;1.60;;;;;;;32.05;19.57;93792.56;5030330;28;20052;-66
2022/08/13 10:36:27;;;;;;;2.92;1.58;;;;;;;31.39;19.94;93793.84;5030529;28;20551;-68
2022/08/13 10:39:05;;;;;;;3.10;1.65;;;;;;;28.70;22.68;93785.63;5030115;28;20406;-68
2022/08/13 10:41:36;;;;;;;3.13;1.80;;;;;;;28.72;22.96;93790.75;5030550;28;20055;-69
2022/08/13 10:44:23;;;;;;;3.10;1.80;;;;;;;29.36;21.87;93799.16;5029368;28;20068;-70
2022/08/13 10:46:54;;;;;;;4.87;1.73;;;;;;;28.78;21.92;93797.81;5030619;28;20045;-68
2022/08/13 10:49:22;;;;;;;3.53;1.60;;;;;;;29.08;21.30;93793.97;5029409;28;20200;-70
2022/08/13 10:51:49;;;;;;;2.50;1.70;;;;;;;26.19;23.32;93800.69;5030429;28;20053;-69
2022/08/13 10:54:27;;;;;;;2.78;1.70;;;;;;;28.61;20.29;93789.63;5028099;28;20045;-69
2022/08/13 10:56:57;;;;;;;3.65;1.50;;;;;;;28.47;20.77;93805.75;5029841;28;20253;-68
2022/08/13 10:59:25;;;;;;;3.37;1.60;;;;;;;23.93;25.47;93817.88;5029971;28;20034;-69
2022/08/13 11:01:52;;;;;;;4.55;1.80;;;;;;;26.42;23.68;93809.72;5016339;28;20053;-69
2022/08/13 11:04:18;;;;;;;2.60;1.70;;;;;;;27.37;22.58;93810.97;5029661;28;20037;-68
2022/08/13 11:06:50;;;;;;;3.15;1.70;;;;;;;26.29;24.15;93805.47;5030093;28;20047;-68
2022/08/13 11:09:21;;;;;;;2.78;1.88;;;;;;;27.07;23.36;93799.75;5029143;28;20801;-67
2022/08/13 11:12:00;;;;;;;3.30;1.90;;;;;;;25.38;25.54;93807.16;5030224;28;20049;-68
2022/08/13 11:14:29;;;;;;;4.65;1.90;;;;;;;24.88;26.96;93808.78;5028941;28;21591;-67
2022/08/13 11:17:07;;;;;;;2.80;2.00;;;;;;;25.18;26.68;93808.22;5028197;28;20482;-68
2022/08/13 11:19:44;;;;;;;4.65;1.80;;;;;;;24.90;26.35;93811.84;5014621;28;20053;-70
2022/08/13 11:22:20;;;;;;;2.90;1.90;;;;;;;25.01;26.34;93797.03;5027767;28;20444;-68
2022/08/13 11:24:55;;;;;;;3.10;1.80;;;;;;;25.56;26.18;93802.25;5030367;28;20052;-68
2022/08/13 11:27:22;;;;;;;3.55;2.13;;;;;;;25.93;26.67;93796.22;5027340;28;20726;-68
2022/08/13 11:30:10;;;;;;;3.83;2.10;;;;;;;25.29;26.95;93799.78;5028121;28;20046;-70
2022/08/13 11:32:37;;;;;;;6.18;2.08;;;;;;;26.10;26.70;93782.06;5029522;28;20047;-69
2022/08/13 11:35:06;;;;;;;3.65;2.30;;;;;;;23.61;29.38;93820.78;5028914;28;20045;-71
2022/08/13 11:37:37;;;;;;;4.50;2.97;;;;;;;24.27;28.30;93798.31;5029102;28;20057;-68
2022/08/13 11:40:07;;;;;;;4.65;2.10;;;;;;;25.74;26.36;93795.28;5028892;28;20094;-68
2022/08/13 11:42:54;;;;;;;3.40;2.15;;;;;;;24.98;26.96;93817.69;5029585;28;20466;-68
2022/08/13 11:45:38;;;;;;;4.97;2.28;;;;;;;24.56;27.70;93801.91;5042935;28;20105;-71
2022/08/13 11:48:10;;;;;;;3.65;2.10;;;;;;;24.66;28.05;93792.72;5029210;28;20041;-68
2022/08/13 11:50:37;;;;;;;2.93;1.87;;;;;;;25.52;27.39;93783.63;5027726;28;20042;-68
2022/08/13 11:53:04;;;;;;;3.75;2.20;;;;;;;25.81;27.27;93789.09;5028699;28;20357;-69
2022/08/13 11:55:34;;;;;;;4.55;2.22;;;;;;;26.65;27.09;93785.78;5028913;28;20490;-68
2022/08/13 11:58:21;;;;;;;3.85;1.90;;;;;;;25.27;26.37;93777.06;5028155;28;20646;-73
2022/08/13 12:01:08;;;;;;;4.38;2.40;;;;;;;25.70;26.44;93782.25;5016115;28;20045;-68
2022/08/13 12:03:40;;;;;;;4.00;2.10;;;;;;;25.45;27.21;93795.38;5028882;28;20056;-73
2022/08/13 12:06:27;;;;;;;4.95;2.30;;;;;;;23.62;29.40;93794.28;5027845;28;20271;-70
2022/08/13 12:08:56;;;;;;;3.63;1.90;;;;;;;24.89;26.65;93799.09;5028606;28;20516;-69
2022/08/13 12:11:42;;;;;;;3.50;2.10;;;;;;;24.13;27.68;93783.25;5015826;28;20415;-68
2022/08/13 12:14:29;;;;;;;2.85;1.80;;;;;;;25.69;26.29;93785.59;5027626;28;20367;-70
2022/08/13 12:16:59;;;;;;;3.57;1.90;;;;;;;24.30;26.50;93795.22;5028613;28;20042;-69
2022/08/13 12:19:27;;;;;;;4.25;1.80;;;;;;;24.78;26.49;93790.66;5028638;28;20060;-72
2022/08/13 12:21:54;;;;;;;3.95;1.80;;;;;;;24.89;25.97;93803.91;5027876;28;20048;-69
2022/08/13 12:24:20;;;;;;;3.80;1.70;;;;;;;24.54;25.71;93796.06;5028200;28;20085;-68
2022/08/13 12:26:58;;;;;;;4.50;1.90;;;;;;;25.39;25.77;93785.44;5028206;28;20515;-69
2022/08/13 12:29:26;;;;;;;3.23;1.97;;;;;;;24.69;26.25;93797.31;5027893;28;20037;-68
2022/08/13 12:32:12;;;;;;;3.30;1.90;;;;;;;24.95;26.21;93798.28;5028054;28;20042;-68
2022/08/13 12:34:40;;;;;;;3.28;1.92;;;;;;;25.11;26.20;93787.06;5028234;28;20249;-67